Terminal Aerodrome Forecast
Issued by NWS

Home | Current Version | Previous Version | Text Only | Print | Product List | Glossary On
Versions: 1 2 3 4 5 6 7 8 9 10 11 12 13
266
FTUS45 KRIW 060520
TAFBPI
TAF
KBPI 060520Z 0606/0706 15006KT P6SM SCT080 BKN120
     FM061100 15006KT P6SM VCSH SCT040 BKN080
     FM061800 15011G19KT P6SM VCTS SCT025CB BKN050
     FM070200 08010KT 6SM -RA SCT020 BKN035=

USA.gov is the U.S. government's official web portal to all federal, state and local government web resources and services.